Shiraz Shahid Dastghaib International Airport
OISS : now visible

Airfield :











YOU CAN JOIN US ON...

 
LOGIN :

Register | Disclaimer

   EN    FR    IT 

 









Legend :    VFR   Marginal VFR   IFR   Intensive IFR   Very Intensive IFR
Visi :
Ceiling :
>= 8 km
>= 3000ft
5 to 8 km
1000 to 3000 ft
1500m to 5 km
500 to 1000 ft
800 to 1500m
200 to 500 ft
< 800m
< 200 ft
Symbols :   Thunderstorms  Fog  Heavy snow  Heavy precipitations  Wind > 20 kt







- Airport Elevation : 4920 ft
- IATA code : SYZ


OISS - Shiraz Shahid Dastghaib International

CURRENT METAR :
  • 160830Z 00000KT CAVOK 38/M15 Q1013 A2994

EXPIRED METARs :
  • 160800Z 03006KT CAVOK 37/M09 Q1014 A2995
  • 160730Z 00000KT CAVOK 35/M10 Q1014 A2996
  • 160700Z 00000KT CAVOK 35/M06 Q1014 A2997
  • 160630Z 00000KT CAVOK 34/M09 Q1014 A2997
  • 160600Z 00000KT CAVOK 32/M06 Q1014 A2997

TAF TAF OISS
Valid from the 16 at 06:00 until the 17 at 12:00 UTC


160510Z 1606/1712 26004KT 9999 NSC
TEMPO 1612/1615 25012KT
OIIX FIR / Asia



MET'MAP, your aeronautical weather chart ! - Copyright ORBIFLY December 2007 - Disclaimer

ORBIFLY MET'MAP TEAM :

Programming & Development : Alexandra Zaïnal
Concept & Development : Baudouin d'Aumeries
Co-Development & Prog : Marc-Olivier Méhu
Technical & hardware support : Manuel Goepfert

Contact : metmap@orbifly.com




SOURCES & CREDITS :

   NOAA       Earth
Advisory